createdAt,value
2023-01-13T00:01:46.514Z,100849.78
2023-01-13T00:04:48.612Z,100849.38
2023-01-13T00:08:03.532Z,100855.09
2023-01-13T00:11:12.552Z,100847.44
2023-01-13T00:14:27.623Z,100845.03
2023-01-13T00:17:36.908Z,100849.56
2023-01-13T00:20:52.536Z,100840.66
2023-01-13T00:23:55.824Z,100845.19
2023-01-13T00:27:10.527Z,100838.50
2023-01-13T00:30:25.555Z,100842.38
2023-01-13T00:33:35.514Z,100838.13
2023-01-13T00:36:50.541Z,100837.72
2023-01-13T00:39:59.195Z,100830.03
2023-01-13T00:43:07.542Z,100837.41
2023-01-13T00:46:25.556Z,100829.38
2023-01-13T00:49:40.545Z,100837.00
2023-01-13T00:52:49.524Z,100837.00
2023-01-13T00:56:09.536Z,100836.22
2023-01-13T00:59:18.263Z,100836.22
2023-01-13T01:02:26.606Z,100839.66
2023-01-13T01:05:41.543Z,100832.19
2023-01-13T01:08:50.497Z,100830.56
2023-01-13T01:12:06.539Z,100836.06
2023-01-13T01:15:09.269Z,100832.59
2023-01-13T01:18:24.520Z,100821.44
2023-01-13T01:21:41.517Z,100819.63
2023-01-13T01:24:50.204Z,100819.03
2023-01-13T01:27:58.505Z,100810.13
2023-01-13T01:31:09.207Z,100818.56
2023-01-13T01:34:24.506Z,100818.38
2023-01-13T01:37:39.538Z,100810.22
2023-01-13T01:40:48.886Z,100799.44
2023-01-13T01:44:54.510Z,100802.47
2023-01-13T01:48:12.514Z,100792.75
2023-01-13T01:51:21.523Z,100745.44
2023-01-13T01:54:40.887Z,100798.59
2023-01-13T01:58:04.520Z,100797.78
2023-01-13T02:01:06.612Z,100792.50
2023-01-13T02:04:27.520Z,100779.53
2023-01-13T02:07:33.490Z,100781.34
2023-01-13T02:10:52.508Z,100769.31
2023-01-13T02:13:54.762Z,100775.44
2023-01-13T02:17:27.508Z,100779.66
2023-01-13T02:20:40.923Z,100781.28
2023-01-13T02:24:40.514Z,100785.75
2023-01-13T02:28:26.179Z,100774.19
2023-01-13T02:31:46.570Z,100776.59
2023-01-13T02:35:32.318Z,100774.72
2023-01-13T02:39:03.487Z,100764.75
2023-01-13T02:42:41.511Z,100761.09
2023-01-13T02:46:08.187Z,100763.28
2023-01-13T02:49:34.516Z,100762.03
2023-01-13T02:52:49.495Z,100757.12
2023-01-13T02:56:07.511Z,100754.25
2023-01-13T02:59:18.772Z,100750.38
2023-01-13T03:02:28.469Z,100747.50
2023-01-13T03:05:45.434Z,100748.31
2023-01-13T03:09:00.969Z,100750.16
2023-01-13T03:12:19.433Z,100742.63
2023-01-13T03:16:05.425Z,100748.91
2023-01-13T03:19:50.674Z,100733.88
2023-01-13T03:23:27.413Z,100736.88
2023-01-13T03:26:51.463Z,100739.31
2023-01-13T03:30:15.427Z,100733.22
2023-01-13T03:33:33.405Z,100739.09
2023-01-13T03:36:44.164Z,100739.09
2023-01-13T03:40:04.433Z,100735.44
2023-01-13T03:43:19.386Z,100733.38
2023-01-13T03:46:45.403Z,100725.44
2023-01-13T03:50:01.343Z,100721.97
2023-01-13T03:53:39.434Z,100718.09
2023-01-13T03:57:08.608Z,100717.28
2023-01-13T04:00:19.576Z,100721.91
2023-01-13T04:03:51.406Z,100716.47
2023-01-13T04:07:38.427Z,100720.91
2023-01-13T04:11:04.778Z,100719.41
2023-01-13T04:14:17.404Z,100730.19
2023-01-13T04:17:32.708Z,100723.47
2023-01-13T04:20:49.412Z,100723.06
2023-01-13T04:23:51.282Z,100722.06
2023-01-13T04:27:06.435Z,100720.44
2023-01-13T04:30:15.410Z,100726.97
2023-01-13T04:33:30.410Z,100734.47
2023-01-13T04:36:45.391Z,100731.47
2023-01-13T04:39:47.347Z,100725.22
2023-01-13T04:43:02.399Z,100730.72
2023-01-13T04:46:17.453Z,100727.19
2023-01-13T04:49:32.399Z,100737.19
2023-01-13T04:52:47.407Z,100732.31
2023-01-13T04:55:49.274Z,100722.78
2023-01-13T04:59:04.421Z,100726.44
2023-01-13T05:02:19.448Z,100733.13
2023-01-13T05:05:28.438Z,100726.44
2023-01-13T05:08:37.233Z,100734.63
2023-01-13T05:11:46.447Z,100738.06
2023-01-13T05:15:08.388Z,100739.50
2023-01-13T05:18:24.424Z,100734.69
2023-01-13T05:21:39.465Z,100729.59
2023-01-13T05:24:54.399Z,100747.31
2023-01-13T05:28:09.387Z,100751.97
2023-01-13T05:31:24.443Z,100747.75
2023-01-13T05:34:33.404Z,100750.56
2023-01-13T05:37:49.400Z,100754.25
2023-01-13T05:40:51.303Z,100747.00
2023-01-13T05:44:06.433Z,100752.13
2023-01-13T05:47:14.404Z,100755.84
2023-01-13T05:50:22.992Z,100759.50
2023-01-13T05:53:32.392Z,100757.53
2023-01-13T05:56:41.092Z,100760.16
2023-01-13T05:59:49.425Z,100753.25
2023-01-13T06:03:04.501Z,100749.00
2023-01-13T06:06:06.549Z,100751.84
2023-01-13T06:09:21.414Z,100759.56
2023-01-13T06:12:33.941Z,100755.91
2023-01-13T06:15:42.403Z,100768.91
2023-01-13T06:18:57.663Z,100768.69
2023-01-13T06:22:12.625Z,100757.88
2023-01-13T06:25:53.388Z,100760.75
2023-01-13T06:29:08.412Z,100761.56
2023-01-13T06:32:20.536Z,100764.56
2023-01-13T06:35:39.383Z,100760.09
2023-01-13T06:38:51.906Z,100759.88
2023-01-13T06:42:06.420Z,100763.72
2023-01-13T06:45:15.023Z,100764.09
2023-01-13T06:48:24.395Z,100768.94
2023-01-13T06:51:33.017Z,100760.47
2023-01-13T06:54:47.396Z,100775.63
2023-01-13T06:58:01.398Z,100775.41
2023-01-13T07:01:10.094Z,100776.81
2023-01-13T07:04:25.361Z,100773.13
2023-01-13T07:07:40.210Z,100781.22
2023-01-13T07:10:57.416Z,100769.41
2023-01-13T07:14:06.385Z,100763.94
2023-01-13T07:17:21.716Z,100773.38
2023-01-13T07:20:31.567Z,100778.44
2023-01-13T07:23:48.399Z,100758.75
2023-01-13T07:27:00.092Z,100777.72
2023-01-13T07:30:19.344Z,100780.06
2023-01-13T07:33:29.293Z,100777.59
2023-01-13T07:36:37.395Z,100775.09
2023-01-13T07:39:52.406Z,100772.44
2023-01-13T07:43:07.450Z,100786.84
2023-01-13T07:46:25.334Z,100789.41
2023-01-13T07:49:34.178Z,100789.91
2023-01-13T07:52:42.394Z,100793.88
2023-01-13T07:55:55.905Z,100783.66
2023-01-13T07:59:07.646Z,100793.34
2023-01-13T08:02:17.423Z,100793.72
2023-01-13T08:05:32.410Z,100808.72
2023-01-13T08:08:41.027Z,100806.66
2023-01-13T08:11:55.354Z,100808.28
2023-01-13T08:15:04.836Z,100811.13
2023-01-13T08:18:27.383Z,100823.03
2023-01-13T08:21:36.175Z,100827.31
2023-01-13T08:24:51.373Z,100815.91
2023-01-13T08:27:53.944Z,100815.16
2023-01-13T08:31:11.532Z,100823.03
2023-01-13T08:34:13.468Z,100825.56
2023-01-13T08:37:28.383Z,100828.84
2023-01-13T08:40:31.364Z,100823.06
2023-01-13T08:43:46.381Z,100831.59
2023-01-13T08:46:55.371Z,100835.59
2023-01-13T08:50:05.264Z,100819.22
2023-01-13T08:53:14.375Z,100842.00
2023-01-13T08:56:29.356Z,100846.56
2023-01-13T08:59:40.101Z,100847.22
2023-01-13T09:02:49.838Z,100848.56
2023-01-13T09:06:00.263Z,100845.91
2023-01-13T09:09:15.895Z,100846.94
2023-01-13T09:12:24.979Z,100843.37
2023-01-13T09:15:33.455Z,100844.88
2023-01-13T09:18:55.393Z,100851.50
2023-01-13T09:22:04.354Z,100844.94
2023-01-13T09:25:19.418Z,100841.56
2023-01-13T09:28:22.061Z,100835.84
2023-01-13T09:31:37.393Z,100834.03
2023-01-13T09:34:39.555Z,100837.16
2023-01-13T09:37:54.399Z,100832.78
2023-01-13T09:40:56.652Z,100834.53
2023-01-13T09:44:23.410Z,100837.16
2023-01-13T09:48:05.067Z,100840.91
2023-01-13T09:51:21.426Z,100835.84
2023-01-13T09:54:50.398Z,100832.63
2023-01-13T09:57:52.992Z,100830.56
2023-01-13T10:02:06.358Z,100828.56
2023-01-13T10:05:47.398Z,100831.94
2023-01-13T10:08:49.928Z,100822.22
2023-01-13T10:12:07.363Z,100815.78
2023-01-13T10:15:19.878Z,100822.22
2023-01-13T10:18:41.370Z,100816.66
2023-01-13T10:22:13.336Z,100815.78
2023-01-13T10:25:37.381Z,100816.31
2023-01-13T10:28:39.417Z,100799.28
2023-01-13T10:31:54.396Z,100810.03
2023-01-13T10:35:09.381Z,100815.47
2023-01-13T10:38:28.353Z,100829.13
2023-01-13T10:41:37.330Z,100818.88
2023-01-13T10:45:06.387Z,100813.75
2023-01-13T10:48:21.424Z,100810.88
2023-01-13T10:51:39.100Z,100807.56
2023-01-13T10:54:59.376Z,100801.44
2023-01-13T10:58:28.611Z,100796.28
2023-01-13T11:01:43.572Z,100787.22
2023-01-13T11:05:01.414Z,100776.84
2023-01-13T11:08:18.890Z,100770.16
2023-01-13T11:11:41.417Z,100761.66
2023-01-13T11:14:51.538Z,100761.09
2023-01-13T11:18:31.365Z,100769.75
2023-01-13T11:22:04.404Z,100761.97
2023-01-13T11:25:16.325Z,100760.41
2023-01-13T11:28:50.375Z,100751.06
2023-01-13T11:31:56.317Z,100743.25
2023-01-13T11:35:23.393Z,100737.28
2023-01-13T11:38:54.369Z,100728.63
2023-01-13T11:42:12.971Z,100730.22
2023-01-13T11:45:48.392Z,100738.56
2023-01-13T11:49:03.346Z,100738.22
2023-01-13T11:52:33.377Z,100733.72
2023-01-13T11:56:07.362Z,100727.97
2023-01-13T11:59:15.895Z,100731.19
2023-01-13T12:02:43.347Z,100719.44
2023-01-13T12:06:01.394Z,100713.91
2023-01-13T12:09:14.228Z,100705.37
2023-01-13T12:13:12.392Z,100681.53
2023-01-13T12:16:29.751Z,100688.81
2023-01-13T12:19:45.355Z,100665.41
2023-01-13T12:22:58.898Z,100664.72
2023-01-13T12:26:17.398Z,100651.47
2023-01-13T12:29:44.374Z,100658.16
2023-01-13T12:33:03.385Z,100652.84
2023-01-13T12:36:36.465Z,100654.81
2023-01-13T12:40:19.375Z,100657.34
2023-01-13T12:43:31.347Z,100652.16
2023-01-13T12:46:45.883Z,100644.66
2023-01-13T12:50:29.346Z,100670.69
2023-01-13T12:53:32.735Z,100672.31
2023-01-13T12:56:51.332Z,100670.81
2023-01-13T13:00:11.392Z,100664.44
2023-01-13T13:03:37.331Z,100664.94
2023-01-13T13:07:13.335Z,100666.06
2023-01-13T13:10:31.855Z,100661.09
2023-01-13T13:13:53.349Z,100649.03
2023-01-13T13:16:55.884Z,100665.81
2023-01-13T13:20:55.374Z,100672.50
2023-01-13T13:24:11.377Z,100682.53
2023-01-13T13:27:44.543Z,100680.31
2023-01-13T13:31:14.401Z,100679.75
2023-01-13T13:34:45.355Z,100675.38
2023-01-13T13:38:17.342Z,100673.38
2023-01-13T13:41:26.686Z,100682.00
2023-01-13T13:44:48.347Z,100674.03
2023-01-13T13:47:57.084Z,100673.16
2023-01-13T13:51:09.348Z,100668.97
2023-01-13T13:54:28.334Z,100663.09
2023-01-13T13:57:46.464Z,100658.38
2023-01-13T14:00:56.908Z,100677.28
2023-01-13T14:04:31.505Z,100683.47
2023-01-13T14:07:47.533Z,100680.94
2023-01-13T14:11:04.325Z,100684.28
2023-01-13T14:14:26.491Z,100670.59
2023-01-13T14:17:41.456Z,100691.88
2023-01-13T14:21:18.413Z,100693.50
2023-01-13T14:24:34.284Z,100695.09
2023-01-13T14:27:50.277Z,100688.50
2023-01-13T14:30:53.931Z,100695.19
2023-01-13T14:34:31.752Z,100694.47
2023-01-13T14:37:48.319Z,100688.59
2023-01-13T14:40:57.708Z,100687.63
2023-01-13T14:44:08.306Z,100676.47
2023-01-13T14:47:35.272Z,100697.09
2023-01-13T14:50:44.263Z,100705.53
2023-01-13T14:54:04.239Z,100702.28
2023-01-13T14:57:33.307Z,100705.66
2023-01-13T15:00:42.325Z,100700.34
2023-01-13T15:03:57.356Z,100703.22
2023-01-13T15:07:07.260Z,100702.44
2023-01-13T15:10:30.255Z,100703.56
2023-01-13T15:13:53.596Z,100703.56
2023-01-13T15:17:02.276Z,100701.81
2023-01-13T15:20:20.331Z,100707.13
2023-01-13T15:23:28.961Z,100693.97
2023-01-13T15:26:40.262Z,100694.56
2023-01-13T15:29:55.331Z,100689.84
2023-01-13T15:33:05.316Z,100675.41
2023-01-13T15:36:41.379Z,100691.53
2023-01-13T15:39:50.269Z,100694.91
2023-01-13T15:42:59.397Z,100692.00
2023-01-13T15:46:21.288Z,100696.03
2023-01-13T15:49:40.250Z,100704.25
2023-01-13T15:52:50.255Z,100707.94
2023-01-13T15:55:59.405Z,100701.03
2023-01-13T15:59:08.260Z,100702.50
2023-01-13T16:02:17.324Z,100691.44
2023-01-13T16:05:26.241Z,100688.59
2023-01-13T16:08:34.919Z,100712.22
2023-01-13T16:11:43.252Z,100708.16
2023-01-13T16:14:52.048Z,100709.31
2023-01-13T16:18:08.248Z,100706.19
2023-01-13T16:21:16.780Z,100695.78
2023-01-13T16:24:34.280Z,100697.87
2023-01-13T16:27:49.291Z,100710.22
2023-01-13T16:30:57.965Z,100702.97
2023-01-13T16:34:12.304Z,100710.69
2023-01-13T16:37:31.356Z,100707.56
2023-01-13T16:40:36.348Z,100689.91
2023-01-13T16:43:53.328Z,100698.78
2023-01-13T16:46:55.279Z,100690.72
2023-01-13T16:50:10.310Z,100694.34
2023-01-13T16:53:19.243Z,100697.87
2023-01-13T16:56:36.304Z,100687.19
2023-01-13T16:59:51.338Z,100692.00
2023-01-13T17:02:53.344Z,100690.97
2023-01-13T17:06:08.345Z,100693.63
2023-01-13T17:09:28.598Z,100697.81
2023-01-13T17:12:37.354Z,100705.16
2023-01-13T17:15:52.337Z,100700.66
2023-01-13T17:19:14.380Z,100699.28
2023-01-13T17:22:23.577Z,100692.97
2023-01-13T17:25:40.823Z,100687.78
2023-01-13T17:28:46.475Z,100688.59
2023-01-13T17:32:02.396Z,100682.50
2023-01-13T17:35:11.086Z,100684.56
2023-01-13T17:38:20.477Z,100690.44
2023-01-13T17:41:29.171Z,100693.09
2023-01-13T17:44:37.348Z,100683.19
2023-01-13T17:47:52.643Z,100717.88
2023-01-13T17:51:02.296Z,100722.72
2023-01-13T17:54:15.511Z,100697.03
2023-01-13T17:57:24.329Z,100708.41
2023-01-13T18:00:39.651Z,100704.13
2023-01-13T18:03:48.832Z,100715.78
2023-01-13T18:07:03.349Z,100717.41
2023-01-13T18:10:19.347Z,100714.75
2023-01-13T18:13:28.804Z,100713.22
2023-01-13T18:16:44.329Z,100714.38
2023-01-13T18:19:53.762Z,100719.47
2023-01-13T18:23:08.780Z,100719.69
2023-01-13T18:26:28.348Z,100742.06
2023-01-13T18:29:37.488Z,100752.19
2023-01-13T18:32:52.330Z,100736.38
2023-01-13T18:36:06.805Z,100739.03
2023-01-13T18:39:17.336Z,100731.63
2023-01-13T18:42:26.550Z,100732.19
2023-01-13T18:45:37.478Z,100734.41
2023-01-13T18:48:53.345Z,100744.19
2023-01-13T18:52:10.313Z,100741.53
2023-01-13T18:55:19.296Z,100737.28
2023-01-13T18:58:34.700Z,100734.53
2023-01-13T19:01:50.466Z,100737.28
2023-01-13T19:04:52.575Z,100742.34
2023-01-13T19:08:08.850Z,100746.84
2023-01-13T19:11:23.308Z,100748.22
2023-01-13T19:14:32.328Z,100750.66
2023-01-13T19:17:41.789Z,100750.88
2023-01-13T19:20:53.296Z,100747.78
2023-01-13T19:24:02.109Z,100745.69
2023-01-13T19:27:20.527Z,100756.31
2023-01-13T19:30:30.336Z,100758.50
2023-01-13T19:33:47.574Z,100761.63
2023-01-13T19:36:59.528Z,100774.19
2023-01-13T19:40:12.032Z,100771.28
2023-01-13T19:43:28.318Z,100779.25
2023-01-13T19:46:47.532Z,100770.03
2023-01-13T19:49:56.381Z,100784.56
2023-01-13T19:53:05.426Z,100783.16
2023-01-13T19:56:14.602Z,100792.50
2023-01-13T19:59:23.671Z,100749.78
2023-01-13T20:02:40.509Z,100798.19
2023-01-13T20:05:50.591Z,100802.69
2023-01-13T20:08:59.516Z,100833.84
2023-01-13T20:12:10.940Z,100837.06
2023-01-13T20:15:20.382Z,100849.06
2023-01-13T20:18:36.280Z,100837.28
2023-01-13T20:21:44.964Z,100831.53
2023-01-13T20:25:01.374Z,100821.13
2023-01-13T20:28:05.079Z,100822.06
2023-01-13T20:31:22.364Z,100811.66
2023-01-13T20:34:32.076Z,100817.22
2023-01-13T20:37:43.729Z,100806.84
2023-01-13T20:41:02.051Z,100809.50
2023-01-13T20:44:11.601Z,100806.28
2023-01-13T20:47:28.366Z,100811.22
2023-01-13T20:50:44.710Z,100801.31
2023-01-13T20:54:03.407Z,100801.31
2023-01-13T20:57:19.320Z,100796.00
2023-01-13T21:00:34.395Z,100795.44
2023-01-13T21:03:46.113Z,100803.41
2023-01-13T21:07:01.340Z,100807.13
2023-01-13T21:10:10.426Z,100816.44
2023-01-13T21:13:19.567Z,100818.06
2023-01-13T21:16:28.421Z,100812.75
2023-01-13T21:19:37.044Z,100809.84
2023-01-13T21:22:59.297Z,100810.91
2023-01-13T21:26:01.206Z,100797.62
2023-01-13T21:29:17.400Z,100794.88
2023-01-13T21:32:32.305Z,100790.03
2023-01-13T21:35:47.342Z,100791.28
2023-01-13T21:38:58.145Z,100783.69
2023-01-13T21:42:06.321Z,100782.63
2023-01-13T21:45:21.293Z,100781.34
2023-01-13T21:48:30.276Z,100780.34
2023-01-13T21:51:45.299Z,100786.22
2023-01-13T21:54:53.313Z,100780.34
2023-01-13T21:58:13.548Z,100798.44
2023-01-13T22:01:28.442Z,100801.88
2023-01-13T22:04:43.277Z,100794.28
2023-01-13T22:07:52.429Z,100778.00
2023-01-13T22:11:09.284Z,100781.22
2023-01-13T22:14:17.889Z,100762.09
2023-01-13T22:17:28.301Z,100779.63
2023-01-13T22:20:44.571Z,100799.81
2023-01-13T22:23:54.278Z,100800.28
2023-01-13T22:27:09.291Z,100815.72
2023-01-13T22:30:20.161Z,100814.03
2023-01-13T22:33:29.294Z,100836.25
2023-01-13T22:36:44.283Z,100854.63
2023-01-13T22:39:52.910Z,100863.16
2023-01-13T22:43:01.279Z,100856.81
2023-01-13T22:46:18.316Z,100874.59
2023-01-13T22:49:27.044Z,100876.00
2023-01-13T22:52:43.289Z,100884.75
2023-01-13T22:55:53.982Z,100888.19
2023-01-13T22:59:11.308Z,100891.31
2023-01-13T23:02:26.274Z,100883.94
2023-01-13T23:05:35.296Z,100884.75
2023-01-13T23:08:51.492Z,100868.94
2023-01-13T23:12:00.327Z,100875.50
2023-01-13T23:15:16.269Z,100870.53
2023-01-13T23:18:18.322Z,100868.09
2023-01-13T23:21:36.289Z,100852.41
2023-01-13T23:24:44.335Z,100838.00
2023-01-13T23:27:53.320Z,100835.00
2023-01-13T23:31:01.345Z,100805.72
2023-01-13T23:34:23.299Z,100796.00
2023-01-13T23:37:38.338Z,100803.16
2023-01-13T23:40:52.285Z,100803.16
2023-01-13T23:44:08.307Z,100802.94
2023-01-13T23:47:16.293Z,100785.28
2023-01-13T23:50:27.059Z,100792.47
2023-01-13T23:53:40.222Z,100796.50
2023-01-13T23:56:52.032Z,100811.94
